Karachi Weather



Karachi's Current Weather

Temprature 27o broken clouds

broken clouds

Rain: 0 %

Min Temprature27o
Max Temprature27o
Humidity83
Wind Speed2.1 m/h
Sun Rise06:09:16
Sun Set19:00:28
Current Time: 23-Aug-2019 05:21:14
Lat/Lon: 24.87, 67.03




Karachi's Geo Location



Karachi's Weather Forecast

Time Overall Temp Min Temp Max Temp Humidity Wind Speed Rain
23-Aug-2019 (Fri)
08:00:00 broken clouds 27.620 27.497 27.620 76 6.05 m/h 0 %
11:00:00 broken clouds 28.940 28.850 28.940 71 6.28 m/h 0 %
14:00:00 overcast clouds 30.890 30.831 30.890 62 7.23 m/h 0 %
17:00:00 broken clouds 29.640 29.611 29.640 67 7.09 m/h 0 %
20:00:00 few clouds 27.250 27.250 27.250 78 5.73 m/h 0 %
23:00:00 scattered clouds 26.842 26.842 26.842 79 5.72 m/h 0 %
24-Aug-2019 (Sat)
02:00:00 light rain 26.831 26.831 26.831 77 6.05 m/h 6 %
05:00:00 light rain 26.655 26.655 26.655 77 5.89 m/h 13 %
08:00:00 broken clouds 27.267 27.267 27.267 73 6.24 m/h 0 %
11:00:00 broken clouds 29.969 29.969 29.969 64 7.9 m/h 0 %
14:00:00 broken clouds 30.369 30.369 30.369 65 7.9 m/h 0 %
17:00:00 broken clouds 29.023 29.023 29.023 70 7.32 m/h 0 %
20:00:00 broken clouds 27.450 27.450 27.450 75 6.3 m/h 0 %
23:00:00 overcast clouds 27.169 27.169 27.169 77 5.06 m/h 0 %
25-Aug-2019 (Sun)
02:00:00 light rain 27.131 27.131 27.131 75 5.19 m/h 6 %
05:00:00 broken clouds 26.857 26.857 26.857 77 5.29 m/h 0 %
08:00:00 overcast clouds 27.414 27.414 27.414 76 4.97 m/h 0 %
11:00:00 overcast clouds 29.216 29.216 29.216 67 5.26 m/h 0 %
14:00:00 overcast clouds 29.650 29.650 29.650 65 5 m/h 0 %
17:00:00 overcast clouds 29.850 29.850 29.850 65 5.66 m/h 0 %
20:00:00 few clouds 27.681 27.681 27.681 75 4.4 m/h 0 %
23:00:00 scattered clouds 27.611 27.611 27.611 73 2.87 m/h 0 %
26-Aug-2019 (Mon)
02:00:00 broken clouds 27.565 27.565 27.565 72 2.35 m/h 0 %
05:00:00 light rain 27.150 27.150 27.150 77 2.95 m/h 6 %
08:00:00 overcast clouds 27.967 27.967 27.967 73 2.74 m/h 0 %
11:00:00 overcast clouds 30.972 30.972 30.972 58 3.41 m/h 0 %
14:00:00 clear sky 31.984 31.984 31.984 57 5.27 m/h 0 %
17:00:00 clear sky 31.120 31.120 31.120 58 5.42 m/h 0 %
20:00:00 scattered clouds 28.672 28.672 28.672 70 4.29 m/h 0 %
23:00:00 broken clouds 27.814 27.814 27.814 74 4.08 m/h 0 %
27-Aug-2019 (Tue)
02:00:00 clear sky 26.916 26.916 26.916 80 4.58 m/h 0 %
05:00:00 scattered clouds 26.650 26.650 26.650 81 3.91 m/h 0 %
08:00:00 broken clouds 27.335 27.335 27.335 79 5.76 m/h 0 %
11:00:00 scattered clouds 31.536 31.536 31.536 57 6.29 m/h 0 %
14:00:00 clear sky 32.636 32.636 32.636 54 7.5 m/h 0 %
17:00:00 clear sky 30.865 30.865 30.865 62 7.14 m/h 0 %
20:00:00 clear sky 28.250 28.250 28.250 77 5.87 m/h 0 %
23:00:00 scattered clouds 27.650 27.650 27.650 81 6.38 m/h 0 %
28-Aug-2019 (Wed)
02:00:00 overcast clouds 27.357 27.357 27.357 81 6.97 m/h 0 %
05:00:00 overcast clouds 27.272 27.272 27.272 82 6.39 m/h 0 %


Karachi's Tourist Spots

Parks and Zoos in Karachi

Famous Cities (61)